Crossville Memorial Whitson Field
KCSV : now visible

Airfield :











YOU CAN JOIN US ON...

 
LOGIN :

Register | Disclaimer

   EN    FR    IT 

 









Legend :    VFR   Marginal VFR   IFR   Intensive IFR   Very Intensive IFR
Visi :
Ceiling :
>= 8 km
>= 3000ft
5 to 8 km
1000 to 3000 ft
1500m to 5 km
500 to 1000 ft
800 to 1500m
200 to 500 ft
< 800m
< 200 ft
Symbols :   Thunderstorms  Fog  Heavy snow  Heavy precipitations  Wind > 20 kt






- Airport Elevation : 1881 ft


KCSV - Crossville Memorial Whitson Field

CURRENT METAR :
  • 252053Z AUTO 19008G19KT 10SM BKN011 14/13 A2977 RMK AO2 SLP075 60000 T01440128 58003

EXPIRED METARs :
  • 252001Z AUTO 20007G22KT 160V230 10SM OVC005 13/12 A2978 RMK AO2 CIG 004V009 T01280117
  • 251953Z AUTO 21010G20KT 160V230 10SM OVC004 13/12 A2978 RMK AO2 PK WND 19027/1859 RAB34E44 CIG 004V008 SLP080 P0000 T01280117
  • 251918Z AUTO 20007G19KT 170V230 10SM OVC004 12/11 A2978 RMK AO2 PK WND 19027/1859 T01220111
  • 251853Z AUTO 20016G25KT 10SM OVC005 12/11 A2978 RMK AO2 SLP079 T01220111
  • 251818Z AUTO 20012G23KT 10SM OVC005 11/10 A2979 RMK AO2 CIG 002V009 T01110100

TAF KCSV
Valid from the 25 at 18:00 until the 26 at 18:00 UTC


251734Z 2518/2618 20011G19KT 5SM BR VCSH OVC009 WS020/21045KT
FM260000 21011G16KT 6SM BR VCTS OVC010CB WS020/21045KT
FM260900 22008KT 4SM BR OVC004
FM261200 25007KT 6SM BR OVC015
FM261500 24009G14KT P6SM FEW010 SCT180
KZTL FIR / North America



MET'MAP, your aeronautical weather chart ! - Copyright ORBIFLY December 2007 - Disclaimer

ORBIFLY MET'MAP TEAM :

Programming & Development : Alexandra Zaïnal
Concept & original design : Baudouin d'Aumeries
Assistance for programming : Marc-Olivier Méhu
Technical & hardware support : Manuel Goepfert

Contact : metmap@orbifly.com




SOURCES & CREDITS :

   NOAA       Earth
Advisory